Relevés horaires Bierset (Belgique)


Relevés horaires à Bierset - Samedi 07 Août 2021
Heure UTC1 Température [°C] Vent [km/h] Hum. [%] Pres.4 [hPa] Visi. [Km] Nébu. [octa] Préc.5 [mm] Cond.
2m. Res. Ros. Dir.2 Vit. Moy. Raf.3
23:00 15.0 14.1 12.5 SSO 14.8 14.8 20.4 85 1005.1(1.8/3h) 30 5/8 -- --
22:00 15.2 14.5 12.5 SSO 13.0 14.8 20.4 84 1004.4(1.9/3h) 30 5/8 -- --
21:00 15.5 15.1 12.6 SSO 11.1 11.1 20.4 83 1004(1.6/3h) 30 5/8 -- --
20:00 15.4 15.2 12.5 S 9.3 9.3 16.7 83 1003.2(1.4/3h) 30 3/8 -- --
19:00 16.4 16.4 14.2 S 9.3 9.3 13.0 87 1002.4(0.8/3h) 30 6/8 -- --
18:00 16.0 16.0 14.3 SO 7.4 18.5 25.9 90 1002.4(1.0/3h) 30 7/8 0.2/12h
Il y a eu un orage, avec ou sans précipitations, à la station au cours de l'heure précédente, mais il n'y a ni tonnerre ni précipitations au moment de l'observation. Il faut que le tonnerre ait été perceptible pour la dernière fois 15 minutes ou plus avant l'observation
17:00 18.0 17.9 12.0 S 13.0 18.5 25.9 68 1001.6(-0.1/3h) 30 7/8 -- --
16:00 19.7 19.7 11.7 S 16.7 18.5 25.9 60 1001.4(-0.3/3h) 30 6/8 -- --
15:00 21.0 21.0 12.4 S 11.1 14.8 20.4 58 1001.1(-0.9/3h) 30 6/8 -- --
14:00 19.6 19.6 11.1 S 13.0 14.8 20.4 58 1001.6(-0.9/3h) 30 7/8 -- --
13:00 19.9 19.9 11.0 SSO 11.1 14.8 20.4 56 1001.6(-1.7/3h) 30 7/8 -- --
12:00 19.8 19.8 11.0 S 11.1 13.0 18.5 57 1002.1(-1.3/3h) 30 5/8 0/6h
--
11:00 19.7 19.7 11.6 SSO 11.1 13.0 18.5 60 1002.5(-1.1/3h) 30 6/8 -- --
10:00 19.3 19.3 12.6 SSO 11.1 13.0 18.5 65 1003.3(-0.5/3h) 30 3/8 -- --
09:00 17.7 17.7 13.0 SSO 11.1 11.1 16.7 74 1003.5(-0.4/3h) 30 5/8 -- --
08:00 15.9 15.8 13.4 S 9.3 9.3 14.8 85 1003.9(-0.5/3h) 30 5/8 -- --
07:00 15.4 15.4 13.5 S 7.4 9.3 16.7 88 1004(-0.4/3h) 30 6/8 -- --
06:00 15.0 15 12.9 S 7.4 7.4 16.7 87 1004.1(-0.6/3h) 30 7/8 7/12h
--
05:00 14.7 14.6 13.1 S 7.4 7.4 11.1 90 1004.5(-0.7/3h) 20 7/8 -- --
04:00 14.4 14.4 13.0 S 3.7 5.6 13.0 91 1004.6(-1.0/3h) 20 6/8 -- --
03:00 14.3 14.3 12.9 SSE 5.6 7.4 14.8 91 1004.8(-1.3/3h) 20 5/8 -- --
02:00 14.1 14.1 13.2 SSE 5.6 5.6 13.0 94 1005.2(-0.9/3h) 20 5/8 -- --
01:00 14.5 14.5 13.4 SSE 3.7 3.7 9.3 93 1005.6(-1.0/3h) 20 5/8 -- --
00:00 14.8 14.8 13.5 OSO 3.7 13.0 20.4 92 1006(0.4/3h) 20 7/8 7/6h
11.8/24h
Etat du ciel inchangé

1 Coordinated Universal Time. Actuellement il est 22:00 locale et 20:00 UTC.

2 Le vent souffle depuis la direction indiquée vers la direction oposée.

3 Les rafales max. sont disponible 40 min après l'heure du relevé.

4 Pour les stations d'altitude (plus de 600m) le géopotentiel du niveau le plus proche de la pression obligatoire est indiqué.

5 Les stations disposant d'un diffuseur peuvent indiquer "trace". Cela signifie que des précipitations ont touchés le sol mais que la quantité est inférieure à 0.1 mm.

Récapitulatif de la journée
Température [°C] Vent [km/h] Ensoleillement4 [h] Precipitations totale5 [mm] Pression [Hpa]
Min1 Max.2 Moy.3 Max. Min Max.
14.0 21.5 11.6 25.9 0 h 0 min 0.2 1001.1 1006.0

1 Température minimale relevée entre 18:00 UTC la veille et 18:00 UTC le jour donné.

2 Température maximale relevée entre 06:00 UTC le jour donné et 06:00 UTC le lendemain.

3 Vent moyen de la journée basé sur les relevés horaires.

4 Ensoleillement en heures relevé entre 06:00 UTC la veille et 06:00 UTC le jour donné.

5 Précipitations totales tombées entre 06:00 UTC la jour donné et 06:00 UTC le lendemain.

Graphiques horaires